Time;durP1;ratioP1;P1;durP2;ratioP2;P2;SDS_P1;SDS_P2;PMS_P1;PMS_P2;Temp;Humidity;BMP_temperature;BMP_pressure;BME280_temperature;BME280_humidity;BME280_pressure;Samples;Min_cycle;Max_cycle;Signal;HPM_P1;HPM_P2
2022/07/03 00:00:43;;;;;;;2.50;2.20;;;24.20;54.60;;;;;;5074155;28;20178;-11
2022/07/03 00:03:09;;;;;;;2.47;2.20;;;24.20;54.50;;;;;;5075304;28;20172;-11
2022/07/03 00:05:35;;;;;;;2.20;2.00;;;24.20;54.60;;;;;;5056694;28;20459;-11
2022/07/03 00:08:03;;;;;;;2.77;2.20;;;24.10;54.50;;;;;;5074271;28;20558;-11
2022/07/03 00:10:29;;;;;;;3.10;2.30;;;24.10;54.80;;;;;;5073286;28;20168;-11
2022/07/03 00:12:55;;;;;;;4.00;2.17;;;24.00;54.80;;;;;;5074060;28;20210;-11
2022/07/03 00:15:20;;;;;;;2.43;1.83;;;24.00;54.80;;;;;;5074165;28;20281;-10
2022/07/03 00:17:46;;;;;;;7.10;2.30;;;24.10;54.90;;;;;;5074122;28;20171;-10
2022/07/03 00:20:12;;;;;;;4.03;2.40;;;24.00;54.80;;;;;;5073833;28;20206;-11
2022/07/03 00:22:42;;;;;;;2.47;2.20;;;24.00;55.00;;;;;;5074654;28;20163;-10
2022/07/03 00:25:11;;;;;;;3.67;2.27;;;23.90;55.10;;;;;;5073056;28;20540;-11
2022/07/03 00:27:39;;;;;;;3.70;2.27;;;23.90;55.20;;;;;;5073639;28;20172;-10
2022/07/03 00:30:10;;;;;;;4.43;2.10;;;23.90;55.40;;;;;;5056428;28;20254;-11
2022/07/03 00:32:38;;;;;;;5.33;2.50;;;23.90;55.40;;;;;;5074043;28;20302;-11
2022/07/03 00:35:06;;;;;;;2.43;2.23;;;23.80;55.40;;;;;;5073100;28;20669;-11
2022/07/03 00:37:31;;;;;;;3.13;2.10;;;23.80;55.30;;;;;;5072904;28;20273;-11
2022/07/03 00:39:57;;;;;;;5.07;2.40;;;23.80;55.50;;;;;;5073353;28;20679;-10
2022/07/03 00:42:27;;;;;;;3.77;2.17;;;23.80;55.60;;;;;;5073342;28;20274;-11
2022/07/03 00:44:55;;;;;;;3.00;2.20;;;23.70;55.90;;;;;;5073574;28;20213;-11
2022/07/03 00:47:23;;;;;;;3.70;2.33;;;23.60;56.30;;;;;;5074195;28;20537;-11
2022/07/03 00:49:51;;;;;;;2.57;2.17;;;23.60;56.40;;;;;;5073637;28;20610;-11
2022/07/03 00:52:19;;;;;;;2.53;2.03;;;23.50;56.60;;;;;;5075018;28;20687;-10
2022/07/03 00:54:51;;;;;;;2.73;2.20;;;23.40;56.90;;;;;;5056892;28;20199;-11
2022/07/03 00:57:17;;;;;;;2.73;2.30;;;23.40;57.30;;;;;;5056943;28;20286;-11
2022/07/03 00:59:46;;;;;;;4.63;2.37;;;23.40;57.00;;;;;;5074961;28;20246;-10
2022/07/03 01:02:30;;;;;;;2.30;2.10;;;23.50;56.90;;;;;;5073879;28;20478;-10
2022/07/03 01:05:09;;;;;;;5.53;2.50;;;23.60;56.70;;;;;;5075727;28;20171;-11
2022/07/03 01:07:51;;;;;;;2.60;2.10;;;23.60;56.70;;;;;;5060245;28;20175;-10
2022/07/03 01:10:51;;;;;;;2.97;1.90;;;23.50;57.00;;;;;;5060589;28;20179;-10
2022/07/03 01:13:35;;;;;;;4.30;2.17;;;23.30;57.30;;;;;;5030176;28;20186;-10
2022/07/03 01:16:17;;;;;;;3.67;2.40;;;23.40;57.40;;;;;;5078846;28;20202;-11
2022/07/03 01:18:46;;;;;;;2.93;2.00;;;23.40;57.70;;;;;;5074864;28;20619;-11
2022/07/03 01:21:17;;;;;;;4.30;2.17;;;23.40;57.80;;;;;;5078429;28;20168;-11
2022/07/03 01:24:06;;;;;;;2.20;2.00;;;23.40;57.80;;;;;;5078512;28;20775;-11
2022/07/03 01:26:35;;;;;;;3.17;2.20;;;23.40;57.60;;;;;;5060275;28;20175;-10
2022/07/03 01:29:13;;;;;;;3.17;2.20;;;23.50;57.40;;;;;;5077263;28;20451;-11
2022/07/03 01:31:41;;;;;;;2.50;2.10;;;23.50;57.50;;;;;;5076761;28;20187;-11
2022/07/03 01:34:16;;;;;;;5.20;2.17;;;23.60;57.50;;;;;;5076590;28;20229;-11
2022/07/03 01:36:46;;;;;;;2.53;2.10;;;23.70;57.30;;;;;;5078033;28;20171;-10
2022/07/03 01:39:15;;;;;;;2.33;2.00;;;23.70;57.70;;;;;;5077379;28;20168;-10
2022/07/03 01:41:44;;;;;;;2.30;1.93;;;23.50;57.90;;;;;;5076617;28;20178;-11
2022/07/03 01:44:13;;;;;;;3.47;2.20;;;23.40;58.20;;;;;;5077958;28;20160;-10
2022/07/03 01:46:45;;;;;;;3.20;1.87;;;23.40;58.20;;;;;;5077606;28;20172;-11
2022/07/03 01:49:13;;;;;;;3.23;2.00;;;23.40;58.50;;;;;;5077410;28;20163;-10
2022/07/03 01:51:41;;;;;;;2.73;2.00;;;23.40;58.70;;;;;;5076897;28;20183;-11
2022/07/03 01:54:10;;;;;;;3.83;2.10;;;23.10;59.30;;;;;;5076052;28;20175;-11
2022/07/03 01:56:36;;;;;;;3.03;2.23;;;22.40;62.00;;;;;;5075198;28;20179;-11
2022/07/03 01:59:03;;;;;;;2.90;1.77;;;22.10;64.70;;;;;;5075761;28;20255;-11
2022/07/03 02:01:37;;;;;;;3.20;2.10;;;21.80;65.30;;;;;;5077642;28;20187;-10
2022/07/03 02:04:14;;;;;;;3.67;2.00;;;21.60;67.90;;;;;;5075870;28;20175;-11
2022/07/03 02:06:43;;;;;;;4.33;2.00;;;21.90;68.20;;;;;;5077076;28;20174;-10
2022/07/03 02:09:11;;;;;;;3.13;2.03;;;22.20;65.70;;;;;;5077313;28;20247;-10
2022/07/03 02:11:43;;;;;;;2.80;2.00;;;22.60;63.80;;;;;;5076462;28;20210;-11
2022/07/03 02:14:20;;;;;;;3.50;2.10;;;22.80;62.80;;;;;;5077327;28;20174;-11
2022/07/03 02:17:00;;;;;;;2.47;2.00;;;22.80;61.90;;;;;;5059109;28;20171;-11
2022/07/03 02:19:43;;;;;;;5.23;2.00;;;22.60;62.20;;;;;;5077717;28;20202;-10
2022/07/03 02:22:11;;;;;;;2.50;2.00;;;22.20;63.00;;;;;;5076560;28;20262;-10
2022/07/03 02:24:46;;;;;;;2.07;1.87;;;22.00;66.50;;;;;;5076413;28;20538;-10
2022/07/03 02:27:47;;;;;;;4.37;1.93;;;22.30;65.20;;;;;;5076954;28;20512;-10
2022/07/03 02:30:13;;;;;;;2.33;1.73;;;22.60;63.70;;;;;;5077254;28;20180;-11
2022/07/03 02:32:49;;;;;;;2.67;2.00;;;22.80;62.30;;;;;;5059395;28;20179;-10
2022/07/03 02:35:24;;;;;;;2.10;1.90;;;23.00;61.50;;;;;;5077112;28;20231;-10
2022/07/03 02:38:09;;;;;;;2.07;1.87;;;23.00;60.80;;;;;;5058988;28;20232;-10
2022/07/03 02:41:00;;;;;;;2.67;2.10;;;23.10;60.40;;;;;;5075741;28;20249;-10
2022/07/03 02:43:31;;;;;;;3.57;1.93;;;22.90;61.90;;;;;;5076186;28;20175;-10
2022/07/03 02:49:20;;;;;;;2.23;2.03;;;22.70;63.40;;;;;;5076665;28;20243;-11
2022/07/03 02:51:58;;;;;;;2.33;1.90;;;22.80;63.20;;;;;;5076704;28;20645;-10
2022/07/03 02:54:24;;;;;;;3.30;1.90;;;22.80;63.60;;;;;;5076791;28;20432;-11
2022/07/03 02:57:09;;;;;;;3.13;2.03;;;22.90;62.20;;;;;;5076845;28;20214;-11
2022/07/03 03:00:00;;;;;;;2.40;2.00;;;22.80;62.80;;;;;;5076411;28;20214;-10
2022/07/03 03:02:56;;;;;;;2.73;1.90;;;22.80;62.90;;;;;;5075830;28;20449;-10
2022/07/03 03:05:37;;;;;;;2.27;1.70;;;22.80;62.80;;;;;;5076284;28;20170;-11
2022/07/03 03:08:28;;;;;;;2.33;1.90;;;22.90;62.70;;;;;;5058877;28;20273;-11
2022/07/03 03:11:08;;;;;;;2.13;1.83;;;22.70;62.90;;;;;;5058567;28;20179;-11
2022/07/03 03:13:35;;;;;;;3.40;2.10;;;22.80;62.80;;;;;;5075841;28;20179;-10
2022/07/03 03:16:07;;;;;;;2.60;1.70;;;22.90;62.00;;;;;;5058267;28;20276;-10
2022/07/03 03:18:39;;;;;;;2.00;1.80;;;23.00;61.40;;;;;;5075896;28;20190;-11
2022/07/03 03:21:09;;;;;;;2.07;1.67;;;23.10;60.90;;;;;;5075247;28;20180;-11
2022/07/03 03:23:42;;;;;;;2.15;1.90;;;23.20;60.60;;;;;;5075707;28;20191;-10
2022/07/03 03:26:09;;;;;;;2.53;1.90;;;23.20;60.40;;;;;;5076372;28;20273;-11
2022/07/03 03:28:34;;;;;;;2.13;1.80;;;23.20;60.30;;;;;;5075597;28;20175;-11
2022/07/03 03:31:00;;;;;;;2.37;1.80;;;23.30;60.70;;;;;;5075889;28;20606;-10
2022/07/03 03:33:26;;;;;;;3.07;1.90;;;23.30;60.00;;;;;;5075309;28;20191;-11
2022/07/03 03:35:55;;;;;;;2.17;1.97;;;23.30;59.90;;;;;;5075403;28;20210;-10
2022/07/03 03:38:21;;;;;;;3.33;1.90;;;23.00;61.00;;;;;;5075724;28;20617;-11
2022/07/03 03:40:47;;;;;;;3.00;1.70;;;22.90;61.60;;;;;;5075172;28;20175;-11
2022/07/03 03:43:13;;;;;;;2.13;1.80;;;23.10;60.90;;;;;;5075837;28;20182;-11
2022/07/03 03:45:39;;;;;;;2.85;1.90;;;23.10;60.80;;;;;;5057512;28;20179;-11
2022/07/03 03:48:06;;;;;;;2.47;1.80;;;23.20;60.40;;;;;;5075524;28;20175;-10
2022/07/03 03:50:31;;;;;;;2.07;1.87;;;23.30;60.20;;;;;;5075632;28;20545;-10
2022/07/03 03:53:00;;;;;;;2.43;1.70;;;23.20;60.40;;;;;;5075676;28;20185;-11
2022/07/03 03:55:25;;;;;;;1.77;1.67;;;23.00;61.10;;;;;;5073969;28;20215;-11
2022/07/03 03:57:51;;;;;;;3.07;1.93;;;23.10;61.00;;;;;;5075496;28;20181;-11
2022/07/03 04:00:17;;;;;;;3.03;1.90;;;23.10;60.80;;;;;;5075529;28;20212;-11
2022/07/03 04:02:42;;;;;;;1.50;1.40;;;23.20;60.60;;;;;;5076699;28;20180;-10
2022/07/03 04:05:09;;;;;;;2.47;1.90;;;23.20;60.10;;;;;;5074245;28;20279;-11
2022/07/03 04:07:34;;;;;;;2.00;1.73;;;23.30;60.00;;;;;;5074867;28;20179;-10
2022/07/03 04:10:00;;;;;;;2.17;1.80;;;23.30;59.80;;;;;;5076575;28;20195;-10
2022/07/03 04:12:26;;;;;;;1.73;1.60;;;23.30;59.90;;;;;;5077302;28;20719;-11
2022/07/03 04:14:51;;;;;;;1.90;1.80;;;23.40;59.90;;;;;;5076545;28;20225;-10
2022/07/03 04:17:17;;;;;;;1.90;1.70;;;23.40;59.70;;;;;;5057555;28;20300;-11
2022/07/03 04:19:43;;;;;;;2.33;1.70;;;23.40;59.70;;;;;;5074458;28;20245;-10
2022/07/03 04:22:09;;;;;;;1.97;1.87;;;23.40;59.60;;;;;;5074109;28;20171;-10
2022/07/03 04:24:38;;;;;;;2.30;1.80;;;23.40;59.70;;;;;;5074820;28;20415;-11
2022/07/03 04:27:04;;;;;;;2.33;1.90;;;23.40;59.60;;;;;;5074821;28;20178;-10
2022/07/03 04:29:29;;;;;;;1.80;1.70;;;23.30;59.90;;;;;;5074522;28;20182;-10
2022/07/03 04:31:55;;;;;;;2.10;1.90;;;23.40;59.70;;;;;;5075018;28;20277;-11
2022/07/03 04:34:21;;;;;;;2.13;1.60;;;23.50;59.70;;;;;;5075136;28;20186;-11
2022/07/03 04:36:46;;;;;;;2.00;1.80;;;23.50;59.60;;;;;;5074693;28;20175;-10
2022/07/03 04:39:12;;;;;;;1.83;1.70;;;23.50;59.50;;;;;;5075120;28;20171;-11
2022/07/03 04:41:38;;;;;;;2.23;1.80;;;23.50;59.50;;;;;;5078917;28;20229;-11
2022/07/03 04:44:04;;;;;;;2.07;1.80;;;23.50;59.60;;;;;;5078660;28;20171;-11
2022/07/03 04:46:29;;;;;;;1.90;1.80;;;23.50;59.50;;;;;;5077901;28;20445;-10
2022/07/03 04:48:55;;;;;;;1.83;1.60;;;23.60;59.40;;;;;;5078174;28;20175;-10
2022/07/03 04:51:21;;;;;;;2.13;1.93;;;23.60;59.30;;;;;;5078724;28;20178;-10
2022/07/03 04:53:46;;;;;;;2.10;1.70;;;23.70;59.30;;;;;;5078591;28;20262;-10
2022/07/03 04:56:12;;;;;;;2.57;1.80;;;23.70;59.30;;;;;;5077569;28;20240;-10
2022/07/03 04:58:38;;;;;;;1.80;1.63;;;23.80;59.20;;;;;;5078710;28;20178;-10
2022/07/03 05:01:04;;;;;;;2.03;1.83;;;23.80;59.00;;;;;;5076852;28;20172;-11
2022/07/03 05:03:29;;;;;;;4.53;2.00;;;23.80;59.10;;;;;;5078494;28;20168;-10
2022/07/03 05:05:55;;;;;;;2.73;2.00;;;23.80;59.00;;;;;;5077559;28;20262;-11
2022/07/03 05:08:21;;;;;;;4.13;1.97;;;23.90;58.90;;;;;;5076550;28;20241;-10
2022/07/03 05:10:47;;;;;;;2.50;2.07;;;23.90;59.20;;;;;;5077949;28;20451;-11
2022/07/03 05:13:12;;;;;;;2.33;1.70;;;23.90;58.80;;;;;;5077334;28;20168;-11
2022/07/03 05:15:38;;;;;;;2.00;1.80;;;23.90;58.90;;;;;;5078494;28;20280;-10
2022/07/03 05:18:04;;;;;;;2.83;1.87;;;24.00;58.80;;;;;;5077494;28;20172;-11
2022/07/03 05:20:30;;;;;;;2.20;1.90;;;24.00;58.80;;;;;;5076999;28;20170;-11
2022/07/03 05:22:58;;;;;;;2.27;1.80;;;24.00;59.90;;;;;;5077756;28;20613;-10
2022/07/03 05:25:24;;;;;;;2.20;1.60;;;24.00;59.20;;;;;;5078320;28;20236;-10
2022/07/03 05:27:54;;;;;;;2.37;2.00;;;24.10;58.90;;;;;;5078334;28;20183;-10
2022/07/03 05:30:22;;;;;;;1.77;1.67;;;24.10;59.60;;;;;;5076944;28;20168;-11
2022/07/03 05:32:49;;;;;;;1.73;1.60;;;24.20;58.40;;;;;;5077431;28;20168;-10
2022/07/03 05:35:15;;;;;;;2.90;1.70;;;24.30;57.90;;;;;;5077483;28;20203;-10
2022/07/03 05:37:41;;;;;;;1.80;1.70;;;24.40;57.70;;;;;;5078204;28;20164;-10
2022/07/03 05:40:09;;;;;;;2.07;1.70;;;24.40;57.30;;;;;;5076624;28;20553;-10
2022/07/03 05:42:34;;;;;;;1.77;1.67;;;24.50;57.10;;;;;;5076859;28;20168;-11
2022/07/03 05:45:01;;;;;;;2.50;1.70;;;24.50;57.00;;;;;;5077851;28;20172;-11
2022/07/03 05:47:29;;;;;;;1.87;1.70;;;24.60;56.80;;;;;;5079931;28;20179;-11
2022/07/03 05:49:55;;;;;;;2.03;1.80;;;24.60;56.80;;;;;;5078803;28;20151;-11
2022/07/03 05:52:21;;;;;;;2.27;1.50;;;24.70;56.90;;;;;;5079638;28;20182;-10
2022/07/03 05:54:52;;;;;;;1.83;1.73;;;24.70;57.10;;;;;;5078909;28;20195;-10
2022/07/03 05:57:20;;;;;;;2.57;1.80;;;24.60;59.10;;;;;;5078689;28;20180;-11
2022/07/03 05:59:45;;;;;;;1.93;1.53;;;24.60;57.60;;;;;;5079365;28;20267;-10
2022/07/03 06:02:11;;;;;;;2.00;1.70;;;24.70;56.80;;;;;;5078716;28;20286;-10
2022/07/03 06:04:37;;;;;;;3.30;1.80;;;24.80;56.50;;;;;;5077839;28;20179;-11
2022/07/03 06:07:03;;;;;;;2.30;1.77;;;24.90;56.30;;;;;;5079194;28;20178;-11
2022/07/03 06:09:28;;;;;;;1.80;1.70;;;25.00;56.10;;;;;;5078921;28;20254;-11
2022/07/03 06:11:55;;;;;;;1.70;1.60;;;25.10;55.80;;;;;;5079095;28;20211;-10
2022/07/03 06:14:24;;;;;;;3.10;1.80;;;25.30;55.70;;;;;;5078796;28;20167;-11
2022/07/03 06:16:50;;;;;;;2.67;1.63;;;25.30;55.50;;;;;;5078217;28;20171;-10
2022/07/03 06:19:16;;;;;;;2.00;1.55;;;25.30;55.40;;;;;;5078755;28;20241;-10
2022/07/03 06:21:44;;;;;;;1.73;1.60;;;25.40;55.40;;;;;;5079225;28;20179;-10
2022/07/03 06:24:10;;;;;;;1.93;1.73;;;25.50;55.40;;;;;;5078963;28;20144;-10
2022/07/03 06:26:41;;;;;;;1.77;1.57;;;25.60;55.10;;;;;;5078334;28;20183;-10
2022/07/03 06:29:06;;;;;;;1.93;1.73;;;25.70;54.90;;;;;;5079033;28;20552;-11
2022/07/03 06:31:32;;;;;;;1.80;1.70;;;25.80;54.70;;;;;;5077575;28;20209;-10
2022/07/03 06:33:58;;;;;;;3.07;1.73;;;25.90;54.60;;;;;;5078439;28;20172;-11
2022/07/03 06:36:23;;;;;;;3.67;1.60;;;26.00;54.40;;;;;;5078964;28;20484;-10
2022/07/03 06:38:49;;;;;;;2.43;1.70;;;26.10;54.40;;;;;;5078457;28;20167;-10
2022/07/03 06:41:15;;;;;;;1.87;1.60;;;26.20;54.20;;;;;;5077702;28;20171;-11
2022/07/03 06:43:41;;;;;;;2.00;1.80;;;26.30;54.00;;;;;;5077746;28;20176;-11
2022/07/03 06:46:06;;;;;;;2.13;1.77;;;26.40;54.00;;;;;;5077348;28;20183;-11
2022/07/03 06:48:33;;;;;;;3.57;2.20;;;26.50;53.60;;;;;;5078146;28;20171;-10
2022/07/03 06:50:59;;;;;;;2.57;1.60;;;26.50;53.50;;;;;;5077895;28;20190;-11
2022/07/03 06:53:24;;;;;;;2.60;1.67;;;26.60;53.30;;;;;;5077369;28;20179;-11
2022/07/03 06:55:50;;;;;;;2.40;1.70;;;26.70;53.50;;;;;;5077024;28;20215;-10
2022/07/03 06:58:15;;;;;;;1.90;1.50;;;26.80;53.00;;;;;;5077372;28;20199;-11
2022/07/03 07:00:43;;;;;;;1.70;1.60;;;26.90;52.80;;;;;;5077821;28;20280;-10
2022/07/03 07:03:08;;;;;;;2.80;1.50;;;27.00;52.60;;;;;;5077253;28;20518;-11
2022/07/03 07:05:35;;;;;;;2.00;1.70;;;27.20;52.50;;;;;;5078066;28;20156;-11
2022/07/03 07:08:01;;;;;;;1.80;1.60;;;27.30;52.30;;;;;;5076813;28;20197;-10
2022/07/03 07:10:26;;;;;;;2.97;1.77;;;27.50;52.20;;;;;;5078047;28;20610;-11
2022/07/03 07:12:52;;;;;;;3.40;1.60;;;27.70;52.10;;;;;;5077501;28;20182;-10
2022/07/03 07:15:18;;;;;;;1.90;1.70;;;28.00;51.60;;;;;;5077639;28;20464;-10
2022/07/03 07:17:44;;;;;;;2.53;1.80;;;28.50;51.20;;;;;;5076874;28;20201;-11
2022/07/03 07:20:10;;;;;;;2.07;1.87;;;28.90;50.70;;;;;;5075906;28;20187;-11
2022/07/03 07:22:35;;;;;;;1.70;1.60;;;29.50;50.10;;;;;;5060064;28;20175;-11
2022/07/03 07:25:03;;;;;;;1.87;1.77;;;29.90;49.50;;;;;;5076071;28;20190;-10
2022/07/03 07:27:28;;;;;;;2.43;1.87;;;30.40;49.10;;;;;;5076987;28;20167;-10
2022/07/03 07:29:54;;;;;;;2.50;1.93;;;30.60;48.60;;;;;;5076263;28;20194;-11
2022/07/03 07:32:20;;;;;;;3.30;2.03;;;30.90;48.20;;;;;;5077120;28;20187;-10
2022/07/03 07:34:46;;;;;;;2.77;1.87;;;31.00;47.90;;;;;;5077120;28;20613;-10
2022/07/03 07:37:11;;;;;;;2.23;1.93;;;31.20;48.00;;;;;;5077405;28;20663;-11
2022/07/03 07:39:37;;;;;;;2.67;2.00;;;31.40;47.60;;;;;;5077052;28;20224;-10
2022/07/03 07:42:04;;;;;;;3.03;2.00;;;31.70;47.20;;;;;;5076867;28;20277;-12
2022/07/03 07:44:30;;;;;;;3.85;2.10;;;31.90;47.00;;;;;;5076515;28;20176;-11
2022/07/03 07:46:55;;;;;;;2.70;2.20;;;32.10;46.70;;;;;;5076367;28;20179;-10
2022/07/03 07:49:21;;;;;;;2.70;1.77;;;32.40;46.50;;;;;;5077353;28;20190;-11
2022/07/03 07:51:47;;;;;;;3.15;1.80;;;32.50;46.20;;;;;;5076226;28;20189;-10
2022/07/03 07:54:12;;;;;;;3.25;2.10;;;32.70;46.10;;;;;;5059182;28;20281;-10
2022/07/03 07:56:38;;;;;;;3.60;1.83;;;32.90;45.90;;;;;;5077146;28;20730;-11
2022/07/03 07:59:03;;;;;;;2.10;1.90;;;33.10;45.70;;;;;;5077323;28;20213;-11
2022/07/03 08:06:58;;;;;;;3.88;2.33;;;33.20;45.70;;;;;;5073065;28;20183;-11
2022/07/03 08:09:26;;;;;;;2.75;1.90;;;33.20;45.60;;;;;;5075873;28;20585;-11
2022/07/03 08:11:52;;;;;;;2.45;1.90;;;33.20;45.50;;;;;;5076882;28;20186;-10
2022/07/03 08:14:17;;;;;;;2.85;2.10;;;33.20;45.50;;;;;;5078724;28;20179;-10
2022/07/03 08:16:45;;;;;;;3.60;2.03;;;33.30;45.60;;;;;;5080431;28;20187;-11
2022/07/03 08:19:11;;;;;;;2.55;1.92;;;33.40;45.80;;;;;;5063601;28;20258;-10
2022/07/03 08:21:37;;;;;;;2.65;1.85;;;33.50;45.20;;;;;;5080935;28;20313;-10
2022/07/03 08:24:03;;;;;;;2.40;2.10;;;33.60;45.20;;;;;;5080283;28;20207;-10
2022/07/03 08:26:31;;;;;;;2.92;2.05;;;33.80;45.00;;;;;;5079157;28;20179;-11
2022/07/03 08:28:56;;;;;;;2.97;1.90;;;33.80;44.90;;;;;;5080745;28;20191;-11
2022/07/03 08:31:22;;;;;;;2.20;2.00;;;33.80;44.90;;;;;;5062930;28;20168;-11
2022/07/03 08:33:48;;;;;;;3.35;1.85;;;33.80;45.00;;;;;;5080260;28;20205;-10
2022/07/03 08:36:14;;;;;;;4.05;2.03;;;33.90;44.90;;;;;;5075778;28;20309;-10
2022/07/03 08:38:39;;;;;;;2.72;2.05;;;34.00;44.80;;;;;;5076343;28;20402;-11
2022/07/03 08:41:05;;;;;;;3.25;2.00;;;34.00;44.70;;;;;;5076166;28;20468;-11
2022/07/03 08:43:31;;;;;;;2.10;1.92;;;34.10;44.80;;;;;;5075967;28;20167;-10
2022/07/03 08:45:59;;;;;;;2.30;1.90;;;34.00;44.70;;;;;;5074416;28;20174;-11
2022/07/03 08:48:25;;;;;;;2.67;1.98;;;34.00;44.70;;;;;;5075295;28;20199;-11
2022/07/03 08:50:52;;;;;;;1.92;1.83;;;33.80;44.80;;;;;;5073610;28;20202;-11
2022/07/03 08:53:18;;;;;;;2.30;1.85;;;33.70;45.00;;;;;;5076071;28;20171;-10
2022/07/03 08:55:53;;;;;;;2.25;2.00;;;33.50;45.00;;;;;;5075246;28;20191;-11
2022/07/03 08:58:23;;;;;;;2.97;2.00;;;33.10;45.30;;;;;;5074794;28;20168;-11
2022/07/03 09:00:49;;;;;;;3.08;1.80;;;32.90;45.40;;;;;;5074787;28;20171;-10
2022/07/03 09:03:15;;;;;;;2.13;1.70;;;32.60;45.80;;;;;;5057628;28;20459;-11
2022/07/03 09:05:41;;;;;;;2.00;1.80;;;32.30;46.00;;;;;;5074765;28;20564;-10
2022/07/03 09:08:08;;;;;;;2.90;1.67;;;32.00;46.10;;;;;;5074107;28;20189;-11
2022/07/03 09:10:34;;;;;;;5.25;2.00;;;31.80;46.40;;;;;;5073698;28;20175;-10
2022/07/03 09:13:01;;;;;;;2.05;1.70;;;31.60;46.50;;;;;;5073225;28;20176;-11
2022/07/03 09:15:26;;;;;;;2.97;1.80;;;31.50;46.80;;;;;;5074189;28;20234;-11
2022/07/03 09:17:58;;;;;;;2.10;1.90;;;31.30;46.90;;;;;;5073650;28;20233;-11
2022/07/03 09:20:38;;;;;;;1.85;1.75;;;31.10;47.10;;;;;;5072200;28;20164;-11
2022/07/03 09:23:20;;;;;;;2.45;1.88;;;31.10;47.30;;;;;;5078544;28;20172;-11
2022/07/03 09:26:02;;;;;;;2.35;1.77;;;31.00;47.30;;;;;;5077733;28;20163;-11
2022/07/03 09:28:53;;;;;;;3.15;1.90;;;31.00;47.40;;;;;;5077734;28;20175;-11
2022/07/03 09:31:27;;;;;;;4.00;1.80;;;31.00;47.50;;;;;;5073118;28;20233;-11
2022/07/03 09:33:56;;;;;;;2.20;1.80;;;31.00;47.50;;;;;;5073904;28;20242;-10
2022/07/03 09:36:37;;;;;;;2.03;1.80;;;30.90;47.60;;;;;;5074589;28;20234;-11
2022/07/03 09:39:31;;;;;;;1.92;1.73;;;30.90;47.70;;;;;;5072268;28;20236;-11
2022/07/03 09:42:04;;;;;;;1.70;1.60;;;30.90;47.80;;;;;;5077619;28;20186;-11
2022/07/03 09:44:40;;;;;;;2.22;1.52;;;30.80;47.90;;;;;;5078453;28;20244;-11
2022/07/03 09:47:17;;;;;;;3.15;1.80;;;30.90;47.80;;;;;;5074113;28;20240;-11
2022/07/03 09:49:46;;;;;;;2.88;1.70;;;31.00;47.90;;;;;;5072999;28;20180;-10
2022/07/03 09:52:33;;;;;;;2.88;2.03;;;30.90;47.90;;;;;;5073742;28;20171;-10
2022/07/03 09:55:10;;;;;;;2.40;1.67;;;30.90;48.00;;;;;;5073245;28;20371;-11
2022/07/03 09:57:49;;;;;;;2.35;1.63;;;31.00;47.90;;;;;;5073492;28;20167;-10
2022/07/03 10:00:22;;;;;;;2.70;1.63;;;30.90;48.10;;;;;;5076901;28;20740;-11
2022/07/03 10:03:05;;;;;;;2.55;1.67;;;30.80;48.20;;;;;;5078249;28;20176;-11
2022/07/03 10:05:44;;;;;;;2.38;1.83;;;30.80;48.20;;;;;;5076542;28;20229;-11
2022/07/03 10:08:18;;;;;;;1.92;1.70;;;30.80;48.10;;;;;;5077075;28;20643;-11
2022/07/03 10:10:48;;;;;;;3.05;1.90;;;30.80;48.30;;;;;;5077347;28;20197;-11
2022/07/03 10:13:14;;;;;;;4.43;1.90;;;30.80;48.40;;;;;;5076928;28;20176;-11
2022/07/03 10:15:42;;;;;;;2.67;1.85;;;30.70;48.50;;;;;;5077371;28;20228;-11
2022/07/03 10:18:12;;;;;;;3.85;1.85;;;30.70;48.50;;;;;;5076900;28;20159;-11
2022/07/03 10:20:42;;;;;;;3.53;1.70;;;30.70;48.60;;;;;;5077518;28;20186;-11
2022/07/03 10:23:09;;;;;;;2.22;1.70;;;30.70;48.60;;;;;;5059468;28;20176;-11
2022/07/03 10:25:35;;;;;;;2.05;1.67;;;30.70;48.60;;;;;;5074475;28;20583;-10
2022/07/03 10:28:02;;;;;;;2.58;1.65;;;30.70;48.60;;;;;;5072569;28;20183;-11
2022/07/03 10:30:29;;;;;;;2.08;1.80;;;30.60;48.70;;;;;;5071174;28;20188;-11
2022/07/03 10:32:56;;;;;;;2.80;1.70;;;30.60;48.80;;;;;;5072529;28;20568;-10
2022/07/03 10:35:26;;;;;;;1.90;1.70;;;30.60;48.80;;;;;;5070733;28;20230;-11
2022/07/03 10:38:24;;;;;;;1.83;1.42;;;30.60;48.80;;;;;;5072558;28;20159;-10
2022/07/03 10:46:33;;;;;;;2.00;1.70;;;30.60;49.30;;;;;;5071329;28;20271;-11
2022/07/03 10:49:05;;;;;;;2.53;1.70;;;30.60;49.00;;;;;;5071110;28;20187;-11
2022/07/03 10:51:51;;;;;;;1.75;1.63;;;30.50;49.10;;;;;;5072808;28;20442;-11
2022/07/03 10:54:24;;;;;;;2.00;1.70;;;30.50;49.10;;;;;;5069869;28;20233;-11
2022/07/03 10:57:02;;;;;;;2.13;1.70;;;30.50;49.20;;;;;;5071234;28;20203;-11
2022/07/03 10:59:36;;;;;;;1.60;1.50;;;30.50;49.20;;;;;;5071275;28;20656;-11
2022/07/03 11:02:22;;;;;;;1.60;1.50;;;30.40;49.30;;;;;;5071725;28;20167;-11
2022/07/03 11:04:57;;;;;;;2.67;1.70;;;30.40;49.30;;;;;;5071347;28;20239;-10
2022/07/03 11:07:26;;;;;;;3.17;1.58;;;30.40;49.90;;;;;;5054383;28;20163;-11
2022/07/03 11:10:10;;;;;;;3.53;1.63;;;30.50;49.50;;;;;;5071450;28;20199;-11
2022/07/03 11:13:00;;;;;;;1.80;1.55;;;30.40;49.40;;;;;;5054307;28;20195;-11
2022/07/03 11:15:33;;;;;;;3.22;1.75;;;30.50;49.50;;;;;;5053337;28;20657;-11
2022/07/03 11:18:37;;;;;;;1.80;1.70;;;30.50;49.50;;;;;;5070111;28;20183;-11
2022/07/03 11:21:15;;;;;;;2.58;1.50;;;30.50;49.50;;;;;;5070352;28;20172;-11
2022/07/03 11:24:11;;;;;;;2.20;1.70;;;30.50;49.60;;;;;;5052814;28;20172;-11
2022/07/03 11:26:36;;;;;;;1.58;1.48;;;30.50;49.60;;;;;;5053716;28;20191;-11
2022/07/03 11:29:03;;;;;;;3.60;1.60;;;30.50;49.60;;;;;;5071754;28;20194;-11
2022/07/03 11:31:28;;;;;;;4.38;1.63;;;30.50;49.50;;;;;;5068719;28;20402;-11
2022/07/03 11:33:54;;;;;;;2.67;1.50;;;30.50;49.60;;;;;;5072129;28;20370;-11
2022/07/03 11:36:40;;;;;;;1.75;1.60;;;30.50;49.60;;;;;;5052612;28;20215;-11
2022/07/03 11:39:10;;;;;;;1.67;1.58;;;30.40;49.70;;;;;;5070506;28;20480;-11
2022/07/03 11:41:35;;;;;;;2.30;1.67;;;30.40;49.60;;;;;;5070274;28;20245;-11
2022/07/03 11:44:03;;;;;;;2.97;1.67;;;30.40;49.70;;;;;;5053692;28;20164;-11
2022/07/03 11:46:36;;;;;;;1.75;1.52;;;30.40;49.80;;;;;;5051512;28;20211;-11
2022/07/03 11:49:13;;;;;;;1.55;1.45;;;30.40;49.90;;;;;;5069183;28;20198;-11
2022/07/03 11:51:43;;;;;;;2.47;1.60;;;30.40;49.90;;;;;;5070928;28;20179;-11
2022/07/03 11:54:09;;;;;;;1.95;1.60;;;30.40;49.90;;;;;;5070557;28;20499;-11
2022/07/03 11:56:36;;;;;;;2.60;1.80;;;30.40;49.90;;;;;;5069105;28;20314;-11
2022/07/03 11:59:06;;;;;;;3.90;1.60;;;30.40;50.40;;;;;;5051830;28;20450;-11
2022/07/03 12:01:37;;;;;;;3.35;1.50;;;30.40;50.00;;;;;;5070837;28;20190;-11
2022/07/03 12:04:14;;;;;;;3.58;1.67;;;30.40;49.90;;;;;;5051816;28;20275;-11
2022/07/03 12:06:50;;;;;;;4.22;1.60;;;30.40;50.00;;;;;;5069463;28;20193;-11
2022/07/03 12:09:24;;;;;;;2.22;1.60;;;30.30;49.90;;;;;;5075648;28;20167;-11
2022/07/03 12:12:01;;;;;;;2.63;1.52;;;30.30;49.70;;;;;;5074870;28;20590;-11
2022/07/03 12:14:40;;;;;;;3.53;1.88;;;30.30;49.90;;;;;;5075573;28;20172;-11
2022/07/03 12:17:08;;;;;;;3.15;1.77;;;30.30;49.40;;;;;;5049397;28;20180;-11
2022/07/03 12:19:35;;;;;;;1.90;1.58;;;30.30;49.70;;;;;;5077478;28;20176;-11
2022/07/03 12:22:01;;;;;;;2.25;1.42;;;30.30;49.90;;;;;;5057528;28;20167;-11
2022/07/03 12:24:27;;;;;;;3.10;2.00;;;30.30;49.40;;;;;;5079622;28;20628;-11
2022/07/03 12:26:52;;;;;;;2.35;1.65;;;30.20;48.50;;;;;;5081026;28;20397;-11
2022/07/03 12:29:18;;;;;;;1.73;1.60;;;30.30;49.80;;;;;;5086782;28;20543;-11
2022/07/03 12:31:47;;;;;;;1.95;1.67;;;30.30;49.90;;;;;;5085560;28;20187;-11
2022/07/03 12:34:14;;;;;;;1.95;1.70;;;30.20;49.60;;;;;;5066254;28;20635;-11
2022/07/03 12:36:41;;;;;;;2.88;1.83;;;30.30;49.80;;;;;;5083092;28;20259;-11
2022/07/03 12:39:06;;;;;;;1.88;1.50;;;30.20;49.70;;;;;;5081572;28;20167;-11
2022/07/03 12:41:33;;;;;;;4.10;1.95;;;30.20;49.30;;;;;;5073570;28;20183;-11
2022/07/03 12:43:59;;;;;;;2.47;1.85;;;30.20;49.40;;;;;;5072436;28;20164;-11
2022/07/03 12:46:36;;;;;;;2.50;1.70;;;30.20;49.60;;;;;;5071336;28;20708;-11
2022/07/03 12:49:13;;;;;;;1.98;1.50;;;30.20;49.80;;;;;;5075484;28;20175;-11
2022/07/03 12:51:40;;;;;;;2.13;1.60;;;30.20;49.70;;;;;;5056688;28;20175;-11
2022/07/03 12:54:35;;;;;;;1.60;1.50;;;30.20;49.10;;;;;;5065466;28;20190;-11
2022/07/03 13:00:05;;;;;;;2.38;1.60;;;30.20;49.40;;;;;;5084502;28;20263;-11
2022/07/03 13:02:33;;;;;;;1.60;1.50;;;30.10;48.10;;;;;;5058606;28;20186;-11
2022/07/03 13:05:00;;;;;;;3.55;1.80;;;30.10;49.10;;;;;;5075104;28;20217;-11
2022/07/03 13:07:30;;;;;;;2.95;1.77;;;30.00;48.80;;;;;;5074664;28;20227;-11
2022/07/03 13:09:59;;;;;;;3.28;1.63;;;30.00;48.30;;;;;;5069882;28;20305;-11
2022/07/03 13:12:25;;;;;;;1.65;1.48;;;30.10;49.00;;;;;;5059145;28;20728;-11
2022/07/03 13:15:07;;;;;;;4.18;1.70;;;30.10;49.80;;;;;;5055558;28;20171;-11
2022/07/03 13:17:54;;;;;;;1.50;1.40;;;30.10;49.00;;;;;;5054853;28;20167;-11
2022/07/03 13:20:23;;;;;;;3.05;1.70;;;30.00;50.20;;;;;;5055465;28;20461;-11